createdAt,value
2019-05-25T00:01:53.872Z,13.95
2019-05-25T00:04:22.289Z,13.92
2019-05-25T00:06:50.690Z,13.88
2019-05-25T00:09:19.063Z,13.87
2019-05-25T00:11:47.584Z,13.85
2019-05-25T00:14:16.035Z,13.83
2019-05-25T00:16:44.450Z,13.79
2019-05-25T00:19:12.858Z,13.78
2019-05-25T00:21:41.535Z,13.75
2019-05-25T00:24:12.791Z,13.74
2019-05-25T00:26:41.520Z,13.72
2019-05-25T00:29:11.463Z,13.71
2019-05-25T00:31:39.874Z,13.71
2019-05-25T00:34:08.260Z,13.72
2019-05-25T00:36:36.852Z,13.73
2019-05-25T00:39:08.001Z,13.81
2019-05-25T00:41:36.487Z,13.81
2019-05-25T00:44:06.886Z,13.82
2019-05-25T00:46:36.791Z,13.79
2019-05-25T00:49:05.276Z,13.81
2019-05-25T00:51:35.213Z,13.80
2019-05-25T00:54:04.702Z,13.79
2019-05-25T00:56:33.146Z,13.65
2019-05-25T00:59:01.554Z,13.80
2019-05-25T01:01:29.961Z,13.79
2019-05-25T01:03:58.624Z,13.77
2019-05-25T01:06:27.013Z,13.78
2019-05-25T01:08:55.417Z,13.82
2019-05-25T01:11:23.840Z,13.83
2019-05-25T01:13:52.259Z,13.80
2019-05-25T01:16:20.653Z,13.78
2019-05-25T01:18:49.153Z,13.76
2019-05-25T01:21:17.538Z,13.73
2019-05-25T01:23:45.959Z,13.69
2019-05-25T01:26:14.353Z,13.67
2019-05-25T01:28:44.287Z,13.60
2019-05-25T01:31:12.849Z,13.54
2019-05-25T01:33:41.273Z,13.48
2019-05-25T01:36:09.664Z,13.41
2019-05-25T01:38:39.666Z,13.35
2019-05-25T01:41:08.070Z,13.33
2019-05-25T01:43:36.491Z,13.29
2019-05-25T01:46:04.964Z,13.23
2019-05-25T01:48:33.371Z,13.18
2019-05-25T01:51:02.529Z,13.11
2019-05-25T01:53:30.955Z,13.06
2019-05-25T01:55:59.342Z,13.01
2019-05-25T01:58:27.830Z,12.98
2019-05-25T02:00:56.287Z,12.96
2019-05-25T02:03:24.638Z,12.95
2019-05-25T02:05:53.201Z,12.95
2019-05-25T02:08:21.611Z,12.97
2019-05-25T02:10:51.524Z,13.03
2019-05-25T02:13:19.925Z,13.07
2019-05-25T02:15:48.415Z,13.05
2019-05-25T02:18:16.802Z,13.09
2019-05-25T02:20:45.181Z,13.09
2019-05-25T02:23:14.404Z,13.10
2019-05-25T02:25:43.060Z,13.09
2019-05-25T02:28:11.457Z,13.10
2019-05-25T02:30:39.960Z,13.13
2019-05-25T02:33:08.354Z,13.14
2019-05-25T02:35:36.755Z,13.16
2019-05-25T02:38:05.154Z,13.19
2019-05-25T02:40:33.575Z,13.26
2019-05-25T02:43:02.161Z,13.31
2019-05-25T02:45:32.204Z,13.36
2019-05-25T02:48:00.577Z,13.38
2019-05-25T02:50:29.036Z,13.37
2019-05-25T02:52:57.438Z,13.35
2019-05-25T02:55:34.250Z,13.34
2019-05-25T02:57:56.181Z,13.33
2019-05-25T03:00:36.438Z,13.30
2019-05-25T03:03:05.788Z,13.26
2019-05-25T03:05:34.192Z,13.25
2019-05-25T03:08:03.030Z,13.25
2019-05-25T03:10:32.888Z,13.25
2019-05-25T03:13:03.179Z,13.17
2019-05-25T03:15:31.656Z,13.09
2019-05-25T03:18:00.153Z,12.99
2019-05-25T03:20:28.645Z,12.90
2019-05-25T03:22:57.404Z,12.84
2019-05-25T03:25:28.232Z,12.78
2019-05-25T03:27:56.931Z,12.71
2019-05-25T03:30:34.083Z,12.67
2019-05-25T03:33:01.948Z,12.61
2019-05-25T03:35:30.619Z,12.55
2019-05-25T03:37:59.011Z,12.52
2019-05-25T03:40:27.413Z,12.47
2019-05-25T03:42:55.810Z,12.43
2019-05-25T03:45:24.425Z,12.39
2019-05-25T03:47:52.848Z,12.38
2019-05-25T03:50:23.021Z,12.38
2019-05-25T03:52:51.413Z,12.38
2019-05-25T03:55:19.829Z,12.39
2019-05-25T03:57:48.288Z,12.42
2019-05-25T04:00:19.192Z,12.43
2019-05-25T04:02:47.602Z,12.46
2019-05-25T04:05:16.011Z,12.53
2019-05-25T04:07:44.496Z,12.59
2019-05-25T04:10:13.152Z,12.63
2019-05-25T04:12:41.619Z,12.68
2019-05-25T04:15:10.326Z,12.74
2019-05-25T04:17:38.762Z,12.81
2019-05-25T04:20:08.602Z,12.85
2019-05-25T04:22:36.997Z,12.90
2019-05-25T04:25:06.243Z,12.92
2019-05-25T04:27:34.659Z,12.94
2019-05-25T04:30:03.229Z,12.93
2019-05-25T04:32:31.623Z,12.92
2019-05-25T04:35:00.108Z,12.92
2019-05-25T04:37:28.506Z,12.89
2019-05-25T04:39:56.921Z,12.88
2019-05-25T04:42:25.362Z,12.92
2019-05-25T04:44:53.900Z,12.95
2019-05-25T04:47:26.940Z,13.00
2019-05-25T04:49:54.026Z,13.06
2019-05-25T04:52:22.723Z,13.14
2019-05-25T04:54:51.123Z,13.21
2019-05-25T04:57:19.574Z,13.33
2019-05-25T04:59:47.988Z,13.46
2019-05-25T05:02:16.563Z,13.61
2019-05-25T05:04:45.008Z,13.75
2019-05-25T05:07:13.367Z,13.86
2019-05-25T05:09:41.848Z,13.99
2019-05-25T05:12:10.612Z,14.08
2019-05-25T05:14:40.577Z,14.15
2019-05-25T05:17:09.382Z,14.21
2019-05-25T05:19:37.829Z,14.21
2019-05-25T05:22:06.412Z,14.21
2019-05-25T05:24:34.799Z,14.27
2019-05-25T05:27:03.226Z,14.35
2019-05-25T05:29:33.231Z,14.43
2019-05-25T05:32:01.710Z,14.56
2019-05-25T05:34:30.125Z,14.72
2019-05-25T05:37:00.729Z,14.87
2019-05-25T05:39:29.312Z,15.02
2019-05-25T05:42:00.873Z,15.16
2019-05-25T05:44:30.788Z,15.32
2019-05-25T05:47:01.695Z,15.48
2019-05-25T05:49:30.831Z,15.65
2019-05-25T05:52:02.212Z,15.83
2019-05-25T05:54:32.253Z,15.98
2019-05-25T05:57:11.895Z,16.16
2019-05-25T05:59:32.282Z,16.33
2019-05-25T06:02:00.948Z,16.49
2019-05-25T06:04:29.372Z,16.64
2019-05-25T06:06:57.777Z,16.80
2019-05-25T06:09:26.171Z,16.94
2019-05-25T06:11:54.601Z,17.06
2019-05-25T06:14:23.004Z,17.16
2019-05-25T06:16:51.435Z,17.32
2019-05-25T06:19:19.834Z,17.49
2019-05-25T06:21:48.251Z,17.72
2019-05-25T06:24:16.661Z,17.87
2019-05-25T06:26:45.079Z,17.98
2019-05-25T06:29:13.738Z,17.99
2019-05-25T06:31:42.166Z,18.16
2019-05-25T06:34:10.747Z,18.33
2019-05-25T06:36:39.129Z,18.75
2019-05-25T06:39:08.601Z,18.91
2019-05-25T06:41:37.024Z,19.10
2019-05-25T06:44:06.317Z,19.24
2019-05-25T06:46:34.698Z,19.31
2019-05-25T06:49:03.101Z,19.29
2019-05-25T06:51:31.496Z,19.44
2019-05-25T06:53:59.939Z,19.48
2019-05-25T06:56:28.354Z,19.55
2019-05-25T06:58:58.814Z,19.67
2019-05-25T07:01:27.441Z,19.68
2019-05-25T07:03:55.850Z,19.63
2019-05-25T07:06:24.325Z,19.83
2019-05-25T07:08:52.743Z,20.04
2019-05-25T07:11:22.737Z,20.05
2019-05-25T07:13:51.185Z,20.07
2019-05-25T07:16:19.596Z,20.11
2019-05-25T07:18:48.033Z,20.20
2019-05-25T07:21:16.607Z,20.27
2019-05-25T07:23:45.127Z,20.30
2019-05-25T07:26:13.673Z,20.61
2019-05-25T07:28:44.323Z,20.83
2019-05-25T07:31:12.763Z,21.07
2019-05-25T07:33:41.318Z,21.33
2019-05-25T07:36:09.806Z,21.39
2019-05-25T07:38:38.228Z,21.39
2019-05-25T07:41:06.642Z,21.42
2019-05-25T07:43:35.140Z,21.58
2019-05-25T07:46:04.454Z,21.63
2019-05-25T07:48:33.113Z,21.50
2019-05-25T07:51:01.506Z,21.39
2019-05-25T07:53:30.406Z,21.29
2019-05-25T07:55:58.734Z,21.41
2019-05-25T07:58:27.156Z,21.46
2019-05-25T08:00:55.543Z,21.34
2019-05-25T08:03:23.966Z,21.37
2019-05-25T08:05:52.381Z,21.45
2019-05-25T08:08:20.801Z,21.57
2019-05-25T08:10:49.225Z,21.60
2019-05-25T08:13:19.309Z,21.79
2019-05-25T08:15:47.811Z,21.78
2019-05-25T08:18:16.199Z,21.83
2019-05-25T08:20:47.178Z,21.88
2019-05-25T08:23:14.904Z,21.95
2019-05-25T08:25:45.228Z,22.16
2019-05-25T08:28:13.618Z,22.25
2019-05-25T08:30:42.079Z,22.48
2019-05-25T08:33:10.507Z,22.66
2019-05-25T08:35:40.471Z,22.66
2019-05-25T08:38:08.878Z,22.58
2019-05-25T08:40:37.292Z,22.43
2019-05-25T08:43:05.954Z,22.40
2019-05-25T08:45:34.519Z,22.48
2019-05-25T08:48:02.920Z,22.67
2019-05-25T08:50:38.458Z,22.87
2019-05-25T08:53:03.187Z,23.17
2019-05-25T08:55:31.629Z,23.19
2019-05-25T08:58:00.464Z,23.03
2019-05-25T09:00:28.958Z,23.15
2019-05-25T09:02:57.358Z,23.47
2019-05-25T09:05:25.872Z,23.65
2019-05-25T09:07:54.575Z,23.90
2019-05-25T09:10:22.988Z,24.24
2019-05-25T09:12:51.377Z,24.30
2019-05-25T09:15:19.874Z,24.23
2019-05-25T09:17:48.513Z,24.05
2019-05-25T09:20:17.443Z,23.71
2019-05-25T09:22:47.349Z,23.47
2019-05-25T09:25:17.147Z,23.30
2019-05-25T09:27:45.557Z,23.36
2019-05-25T09:30:14.448Z,23.21
2019-05-25T09:32:44.362Z,23.39
2019-05-25T09:35:13.226Z,23.45
2019-05-25T09:37:42.172Z,23.44
2019-05-25T09:40:11.022Z,23.44
2019-05-25T09:42:39.993Z,23.48
2019-05-25T09:45:09.322Z,23.50
2019-05-25T09:47:39.459Z,23.55
2019-05-25T09:50:08.306Z,23.57
2019-05-25T09:52:38.217Z,23.60
2019-05-25T09:55:10.420Z,23.62
2019-05-25T09:57:41.568Z,23.75
2019-05-25T10:00:11.566Z,23.84
2019-05-25T10:02:40.230Z,24.02
2019-05-25T10:05:10.242Z,23.85
2019-05-25T10:07:38.632Z,23.53
2019-05-25T10:10:09.585Z,23.50
2019-05-25T10:12:39.652Z,23.65
2019-05-25T10:15:08.274Z,23.91
2019-05-25T10:17:36.797Z,24.15
2019-05-25T10:20:08.449Z,24.25
2019-05-25T10:22:36.997Z,24.35
2019-05-25T10:25:07.518Z,24.40
2019-05-25T10:27:35.957Z,24.28
2019-05-25T10:30:06.511Z,24.44
2019-05-25T10:32:35.019Z,24.55
2019-05-25T10:35:04.940Z,24.46
2019-05-25T10:37:33.361Z,24.53
2019-05-25T10:40:01.752Z,24.55
2019-05-25T10:42:30.207Z,24.46
2019-05-25T10:44:58.603Z,24.42
2019-05-25T10:47:27.397Z,24.51
2019-05-25T10:49:55.804Z,24.61
2019-05-25T10:52:24.460Z,24.61
2019-05-25T10:54:53.066Z,24.77
2019-05-25T10:57:21.476Z,24.93
2019-05-25T10:59:53.061Z,24.92
2019-05-25T11:02:20.394Z,25.03
2019-05-25T11:04:48.966Z,25.26
2019-05-25T11:07:17.405Z,25.24
2019-05-25T11:09:45.821Z,25.33
2019-05-25T11:12:15.724Z,25.50
2019-05-25T11:14:45.632Z,25.35
2019-05-25T11:17:14.096Z,25.42
2019-05-25T11:19:43.493Z,25.70
2019-05-25T11:22:11.904Z,25.79
2019-05-25T11:24:40.316Z,25.74
2019-05-25T11:27:10.618Z,25.92
2019-05-25T11:29:39.013Z,26.02
2019-05-25T11:32:07.786Z,26.02
2019-05-25T11:34:36.240Z,25.80
2019-05-25T11:37:04.733Z,25.38
2019-05-25T11:39:33.147Z,24.91
2019-05-25T11:42:03.072Z,24.29
2019-05-25T11:44:31.625Z,23.92
2019-05-25T11:47:00.009Z,23.78
2019-05-25T11:49:28.431Z,23.77
2019-05-25T11:51:56.846Z,23.77
2019-05-25T11:54:25.588Z,23.77
2019-05-25T11:56:53.985Z,23.77
2019-05-25T11:59:22.410Z,24.01
2019-05-25T12:01:50.822Z,24.23
2019-05-25T12:04:19.386Z,24.48
2019-05-25T12:06:47.799Z,24.61
2019-05-25T12:09:19.281Z,24.48
2019-05-25T12:11:47.692Z,24.51
2019-05-25T12:14:16.139Z,24.43
2019-05-25T12:16:44.546Z,24.22
2019-05-25T12:19:14.989Z,24.16
2019-05-25T12:21:43.321Z,24.27
2019-05-25T12:24:11.821Z,24.15
2019-05-25T12:26:40.482Z,24.04
2019-05-25T12:29:10.477Z,23.86
2019-05-25T12:31:38.873Z,23.80
2019-05-25T12:34:08.994Z,23.77
2019-05-25T12:36:37.567Z,23.58
2019-05-25T12:39:07.556Z,23.41
2019-05-25T12:41:35.959Z,23.39
2019-05-25T12:44:04.476Z,23.34
2019-05-25T12:46:32.883Z,23.35
2019-05-25T12:49:01.320Z,23.48
2019-05-25T12:51:29.721Z,23.65
2019-05-25T12:53:58.206Z,23.90
2019-05-25T12:56:26.614Z,24.04
2019-05-25T12:58:55.048Z,24.09
2019-05-25T13:01:23.473Z,24.10
2019-05-25T13:03:51.893Z,24.22
2019-05-25T13:06:20.291Z,24.03
2019-05-25T13:08:48.727Z,24.07
2019-05-25T13:11:17.126Z,24.19
2019-05-25T13:13:47.113Z,24.23
2019-05-25T13:16:15.569Z,24.17
2019-05-25T13:18:44.061Z,24.19
2019-05-25T13:21:12.718Z,24.23
2019-05-25T13:23:41.170Z,24.25
2019-05-25T13:26:09.568Z,24.32
2019-05-25T13:28:38.009Z,24.41
2019-05-25T13:31:11.713Z,24.48
2019-05-25T13:33:36.995Z,24.83
2019-05-25T13:36:05.398Z,24.90
2019-05-25T13:38:33.805Z,25.03
2019-05-25T13:41:02.368Z,24.81
2019-05-25T13:43:33.804Z,24.73
2019-05-25T13:46:03.781Z,24.54
2019-05-25T13:48:32.362Z,24.49
2019-05-25T13:51:00.772Z,24.46
2019-05-25T13:53:29.184Z,24.50
2019-05-25T13:55:57.737Z,24.50
2019-05-25T13:58:26.159Z,24.57
2019-05-25T14:00:54.649Z,24.80
2019-05-25T14:03:23.053Z,24.91
2019-05-25T14:05:51.622Z,24.96
2019-05-25T14:08:20.076Z,25.28
2019-05-25T14:10:48.497Z,25.73
2019-05-25T14:13:16.915Z,25.73
2019-05-25T14:15:45.350Z,25.90
2019-05-25T14:18:13.767Z,25.97
2019-05-25T14:20:42.339Z,25.72
2019-05-25T14:23:10.750Z,25.68
2019-05-25T14:25:39.242Z,25.61
2019-05-25T14:28:07.589Z,25.77
2019-05-25T14:30:36.101Z,25.95
2019-05-25T14:33:04.671Z,25.62
2019-05-25T14:35:33.145Z,25.28
2019-05-25T14:38:01.517Z,25.08
2019-05-25T14:40:30.208Z,25.03
2019-05-25T14:43:00.159Z,25.11
2019-05-25T14:45:28.570Z,25.15
2019-05-25T14:47:57.039Z,25.10
2019-05-25T14:50:27.015Z,24.88
2019-05-25T14:52:55.387Z,24.76
2019-05-25T14:55:23.796Z,24.53
2019-05-25T14:57:52.219Z,24.48
2019-05-25T15:00:20.808Z,24.33
2019-05-25T15:02:49.408Z,24.26
2019-05-25T15:05:19.110Z,24.23
2019-05-25T15:07:47.817Z,24.19
2019-05-25T15:10:16.889Z,24.09
2019-05-25T15:12:45.431Z,24.00
2019-05-25T15:15:14.371Z,24.02
2019-05-25T15:17:44.295Z,23.98
2019-05-25T15:20:14.034Z,23.93
2019-05-25T15:22:42.469Z,23.72
2019-05-25T15:25:11.086Z,23.37
2019-05-25T15:27:41.143Z,23.07
2019-05-25T15:30:09.997Z,22.78
2019-05-25T15:32:38.740Z,22.58
2019-05-25T15:35:07.500Z,22.42
2019-05-25T15:37:37.486Z,22.27
2019-05-25T15:40:10.822Z,22.12
2019-05-25T15:42:39.266Z,22.02
2019-05-25T15:45:08.688Z,21.95
2019-05-25T15:47:37.176Z,21.87
2019-05-25T15:50:08.609Z,21.81
2019-05-25T15:52:36.998Z,21.81
2019-05-25T15:55:07.734Z,21.83
2019-05-25T15:57:36.155Z,21.88
2019-05-25T16:00:13.702Z,21.93
2019-05-25T16:02:42.510Z,22.01
2019-05-25T16:05:11.840Z,22.13
2019-05-25T16:07:43.544Z,22.24
2019-05-25T16:10:12.234Z,22.37
2019-05-25T16:12:41.458Z,22.57
2019-05-25T16:15:12.064Z,22.65
2019-05-25T16:17:43.831Z,22.67
2019-05-25T16:20:13.947Z,22.56
2019-05-25T16:22:42.349Z,22.62
2019-05-25T16:25:10.906Z,22.69
2019-05-25T16:27:39.334Z,22.70
2019-05-25T16:30:07.976Z,22.82
2019-05-25T16:33:07.030Z,22.96
2019-05-25T16:35:07.301Z,23.14
2019-05-25T16:37:36.158Z,23.29
2019-05-25T16:40:07.393Z,23.34
2019-05-25T16:42:35.796Z,23.44
2019-05-25T16:45:09.110Z,23.45
2019-05-25T16:47:37.708Z,23.19
2019-05-25T16:50:07.683Z,23.55
2019-05-25T16:52:36.087Z,23.68
2019-05-25T16:55:06.743Z,23.73
2019-05-25T16:57:35.309Z,23.70
2019-05-25T17:00:06.312Z,23.73
2019-05-25T17:02:34.771Z,23.54
2019-05-25T17:05:03.284Z,23.55
2019-05-25T17:07:31.692Z,23.51
2019-05-25T17:10:00.093Z,23.40
2019-05-25T17:12:30.094Z,23.23
2019-05-25T17:14:58.496Z,23.05
2019-05-25T17:17:26.922Z,22.90
2019-05-25T17:19:55.357Z,22.77
2019-05-25T17:22:23.741Z,22.61
2019-05-25T17:24:52.173Z,22.43
2019-05-25T17:27:20.578Z,22.26
2019-05-25T17:29:49.213Z,22.11
2019-05-25T17:32:17.705Z,22.00
2019-05-25T17:34:46.110Z,21.89
2019-05-25T17:37:14.698Z,21.74
2019-05-25T17:39:43.099Z,21.57
2019-05-25T17:42:11.504Z,21.42
2019-05-25T17:44:39.942Z,21.30
2019-05-25T17:47:08.345Z,21.16
2019-05-25T17:49:36.768Z,21.03
2019-05-25T17:52:06.771Z,20.94
2019-05-25T17:54:35.232Z,20.87
2019-05-25T17:57:04.680Z,20.77
2019-05-25T17:59:33.092Z,20.55
2019-05-25T18:02:01.545Z,20.59
2019-05-25T18:04:29.998Z,20.50
2019-05-25T18:06:58.674Z,20.43
2019-05-25T18:09:27.066Z,20.37
2019-05-25T18:11:55.758Z,20.27
2019-05-25T18:14:25.814Z,20.21
2019-05-25T18:16:54.383Z,20.10
2019-05-25T18:19:22.792Z,19.99
2019-05-25T18:21:51.169Z,19.96
2019-05-25T18:24:19.615Z,19.95
2019-05-25T18:26:48.207Z,19.91
2019-05-25T18:29:16.639Z,19.88
2019-05-25T18:31:45.024Z,19.80
2019-05-25T18:34:22.180Z,19.65
2019-05-25T18:36:43.561Z,19.55
2019-05-25T18:39:12.029Z,19.46
2019-05-25T18:41:40.429Z,19.37
2019-05-25T18:44:09.203Z,19.32
2019-05-25T18:46:37.629Z,19.19
2019-05-25T18:49:06.178Z,19.08
2019-05-25T18:51:34.927Z,19.02
2019-05-25T18:54:03.359Z,19.02
2019-05-25T18:56:34.548Z,18.96
2019-05-25T18:59:02.945Z,18.95
2019-05-25T19:01:31.399Z,18.92
2019-05-25T19:04:01.051Z,18.91
2019-05-25T19:06:29.599Z,18.89
2019-05-25T19:08:58.120Z,18.81
2019-05-25T19:11:26.844Z,18.71
2019-05-25T19:13:55.228Z,18.64
2019-05-25T19:16:23.636Z,18.53
2019-05-25T19:18:52.061Z,18.39
2019-05-25T19:21:20.634Z,18.24
2019-05-25T19:23:49.046Z,18.08
2019-05-25T19:26:18.963Z,17.90
2019-05-25T19:28:47.473Z,17.72
2019-05-25T19:31:15.895Z,17.56
2019-05-25T19:33:44.291Z,17.47
2019-05-25T19:36:12.776Z,17.33
2019-05-25T19:38:41.320Z,17.26
2019-05-25T19:41:09.822Z,17.17
2019-05-25T19:43:38.277Z,17.02
2019-05-25T19:46:06.684Z,16.87
2019-05-25T19:48:35.411Z,16.71
2019-05-25T19:51:04.612Z,16.56
2019-05-25T19:53:33.003Z,16.09
2019-05-25T19:56:01.627Z,16.30
2019-05-25T19:58:30.008Z,16.18
2019-05-25T20:00:58.408Z,16.08
2019-05-25T20:03:26.801Z,15.99
2019-05-25T20:05:55.227Z,15.92
2019-05-25T20:08:25.253Z,15.90
2019-05-25T20:10:55.733Z,15.88
2019-05-25T20:13:23.782Z,15.86
2019-05-25T20:15:52.285Z,15.79
2019-05-25T20:18:20.944Z,15.80
2019-05-25T20:20:49.456Z,15.78
2019-05-25T20:23:18.021Z,15.79
2019-05-25T20:25:48.494Z,15.75
2019-05-25T20:28:17.008Z,15.70
2019-05-25T20:30:45.635Z,15.62
2019-05-25T20:33:23.167Z,15.60
2019-05-25T20:35:44.280Z,15.52
2019-05-25T20:38:12.978Z,15.44
2019-05-25T20:40:41.461Z,15.49
2019-05-25T20:43:09.917Z,15.52
2019-05-25T20:45:38.286Z,15.54
2019-05-25T20:48:10.913Z,15.51
2019-05-25T20:50:39.666Z,15.37
2019-05-25T20:53:09.673Z,15.38
2019-05-25T20:55:38.100Z,15.28
2019-05-25T20:58:06.505Z,15.16
2019-05-25T21:00:34.900Z,15.03
2019-05-25T21:03:06.706Z,14.90
2019-05-25T21:05:49.945Z,14.77
2019-05-25T21:08:08.541Z,14.64
2019-05-25T21:10:38.435Z,14.52
2019-05-25T21:13:06.957Z,14.43
2019-05-25T21:15:35.370Z,14.35
2019-05-25T21:18:06.065Z,14.32
2019-05-25T21:20:34.456Z,14.16
2019-05-25T21:23:02.861Z,14.26
2019-05-25T21:25:31.279Z,14.23
2019-05-25T21:27:59.745Z,14.20
2019-05-25T21:30:28.142Z,14.16
2019-05-25T21:32:56.718Z,14.15
2019-05-25T21:35:25.208Z,14.10
2019-05-25T21:37:53.603Z,14.04
2019-05-25T21:40:22.076Z,13.98
2019-05-25T21:42:50.487Z,13.90
2019-05-25T21:45:19.612Z,13.85
2019-05-25T21:47:48.005Z,13.80
2019-05-25T21:50:18.247Z,13.76
2019-05-25T21:52:46.640Z,13.73
2019-05-25T21:55:15.193Z,13.71
2019-05-25T21:57:43.613Z,13.69
2019-05-25T22:00:14.480Z,13.68
2019-05-25T22:02:43.015Z,13.66
2019-05-25T22:05:11.671Z,13.58
2019-05-25T22:07:40.119Z,13.68
2019-05-25T22:10:08.926Z,13.68
2019-05-25T22:12:40.454Z,13.64
2019-05-25T22:15:12.523Z,13.61
2019-05-25T22:17:41.011Z,13.57
2019-05-25T22:20:10.147Z,13.52
2019-05-25T22:22:38.608Z,13.47
2019-05-25T22:25:08.125Z,13.41
2019-05-25T22:27:36.541Z,13.37
2019-05-25T22:30:09.512Z,13.34
2019-05-25T22:32:38.006Z,13.30
2019-05-25T22:35:07.420Z,13.30
2019-05-25T22:37:35.839Z,13.31
2019-05-25T22:40:07.472Z,13.35
2019-05-25T22:42:35.949Z,13.42
2019-05-25T22:45:07.026Z,13.47
2019-05-25T22:47:35.423Z,13.40
2019-05-25T22:50:06.567Z,13.61
2019-05-25T22:52:34.953Z,13.63
2019-05-25T22:55:06.697Z,13.74
2019-05-25T22:57:35.099Z,13.76
2019-05-25T23:00:07.609Z,13.80
2019-05-25T23:02:36.243Z,13.76
2019-05-25T23:05:09.875Z,13.81
2019-05-25T23:07:38.399Z,13.80
2019-05-25T23:10:08.579Z,13.78
2019-05-25T23:12:36.993Z,13.76
2019-05-25T23:15:10.008Z,13.71
2019-05-25T23:17:38.580Z,13.66
2019-05-25T23:20:07.943Z,13.61
2019-05-25T23:22:36.351Z,13.55
2019-05-25T23:25:05.290Z,13.49
2019-05-25T23:27:33.676Z,13.43
2019-05-25T23:30:03.618Z,13.38
2019-05-25T23:32:32.108Z,13.34
2019-05-25T23:35:00.510Z,13.28
2019-05-25T23:37:28.926Z,13.22
2019-05-25T23:39:57.327Z,13.17
2019-05-25T23:42:26.095Z,13.12
2019-05-25T23:44:54.510Z,13.08
2019-05-25T23:47:22.907Z,13.02
2019-05-25T23:49:51.308Z,12.97
2019-05-25T23:52:20.049Z,12.93
2019-05-25T23:54:48.438Z,12.85
2019-05-25T23:57:16.904Z,12.78
2019-05-25T23:59:45.316Z,12.55
